RELEVES METEO NEUVILLE
Donnes mto: Actuelle dimanche, 26/09/2021 19:05
Date Horaire Temp. E. Hum. E. P.atmo. Pluie Vent Direction Direction P. de rose Temp au vent Rafales
26/09/2021 19:05 20,6 C 77 % 1013,4 hPa 0,0 mm 0,4 km/h (0 Bft) S 190 16,4 C 20,6 C 8,0 km/h (2 Bft)
26/09/2021 19:00 20,6 C 77 % 1013,4 hPa 0,0 mm 0,2 km/h (0 Bft) S-SO 200 16,4 C 20,6 C 6,4 km/h (2 Bft)
26/09/2021 18:55 20,7 C 77 % 1013,3 hPa 0,0 mm 0,0 km/h (0 Bft) S-SO 200 16,5 C 20,7 C 0,0 km/h (0 Bft)
26/09/2021 18:50 20,8 C 77 % 1013,3 hPa 0,0 mm 0,5 km/h (0 Bft) S-SO 200 16,6 C 20,8 C 6,4 km/h (2 Bft)
26/09/2021 18:45 20,9 C 76 % 1013,3 hPa 0,0 mm 0,9 km/h (0 Bft) S-SO 199 16,5 C 20,9 C 9,7 km/h (2 Bft)
26/09/2021 18:40 21,0 C 76 % 1013,3 hPa 0,0 mm 0,2 km/h (0 Bft) S-SO 194 16,6 C 21,0 C 4,8 km/h (1 Bft)
26/09/2021 18:35 21,1 C 76 % 1013,3 hPa 0,0 mm 0,8 km/h (0 Bft) S-SO 192 16,7 C 21,1 C 8,0 km/h (2 Bft)
26/09/2021 18:30 21,1 C 77 % 1013,3 hPa 0,0 mm 0,7 km/h (0 Bft) S 186 16,9 C 21,1 C 9,7 km/h (2 Bft)
26/09/2021 18:25 21,1 C 77 % 1013,4 hPa 0,0 mm 0,0 km/h (0 Bft) S 180 16,9 C 21,1 C 0,0 km/h (0 Bft)
26/09/2021 18:20 21,1 C 77 % 1013,3 hPa 0,0 mm 0,0 km/h (0 Bft) S 180 16,9 C 21,1 C 1,6 km/h (1 Bft)
26/09/2021 18:15 21,1 C 77 % 1013,3 hPa 0,0 mm 0,2 km/h (0 Bft) S 180 16,9 C 21,1 C 4,8 km/h (1 Bft)
26/09/2021 18:10 21,1 C 77 % 1013,3 hPa 0,0 mm 0,7 km/h (0 Bft) S 180 16,9 C 21,1 C 6,4 km/h (2 Bft)
26/09/2021 18:05 21,2 C 77 % 1013,3 hPa 0,0 mm 0,0 km/h (0 Bft) S 179 17,0 C 21,2 C 0,0 km/h (0 Bft)
26/09/2021 18:00 21,2 C 76 % 1013,3 hPa 0,0 mm 0,1 km/h (0 Bft) S 180 16,8 C 21,2 C 1,6 km/h (1 Bft)
26/09/2021 17:55 21,2 C 76 % 1013,3 hPa 0,0 mm 0,5 km/h (0 Bft) S 179 16,8 C 21,2 C 8,0 km/h (2 Bft)
26/09/2021 17:50 21,2 C 77 % 1013,4 hPa 0,0 mm 0,0 km/h (0 Bft) S 179 17,0 C 21,2 C 1,6 km/h (1 Bft)
26/09/2021 17:45 21,2 C 77 % 1013,3 hPa 0,0 mm 0,9 km/h (0 Bft) S 178 17,0 C 21,2 C 6,4 km/h (2 Bft)
26/09/2021 17:40 21,2 C 77 % 1013,3 hPa 0,0 mm 0,3 km/h (0 Bft) S 182 17,0 C 21,2 C 6,4 km/h (2 Bft)
26/09/2021 17:35 21,3 C 76 % 1013,3 hPa 0,0 mm 1,2 km/h (1 Bft) S 189 16,9 C 21,3 C 8,0 km/h (2 Bft)
26/09/2021 17:30 21,4 C 75 % 1013,2 hPa 0,0 mm 0,8 km/h (0 Bft) S 188 16,8 C 21,4 C 9,7 km/h (2 Bft)
26/09/2021 17:25 21,5 C 74 % 1013,2 hPa 0,0 mm 1,8 km/h (1 Bft) S 186 16,7 C 21,5 C 9,7 km/h (2 Bft)
_ Min-Heure 07:30 16:55 03:10 - 00:00 - - 03:40 07:30 00:00
Minimum _ 15,2 C 72 % 1011,9 hPa - 0,0 km/h (0 Bft) - - 14,3 C 15,2 C 0,0 km/h (0 Bft)
_ Max-Heure 17:00 08:35 13:10 00:10 13:50 - - 15:50 17:00 15:20
Maximum _ 22,1 C 97 % 1014,3 hPa 0,2 mm 5,1 km/h
S (1 Bft)
- - 17,2 C 22,0 C 17,7 km/h
S (3 Bft)
Moyenne _ 17,7 C 89 % 1013,1 hPa #0,2 mm 0,9 km/h (0 Bft) S - 15,8 C 17,7 C 6,0 km/h (2 Bft)
NEUVILLE ST REMY